Terminal Aerodrome Forecast
Issued by NWS Northern Indiana

Home | Current Version | Previous Version | Text Only | Print | Product List | Glossary On
Versions: 1 2 3 4 5 6 7 8 9 10 11 12 13 14 15 16 17 18 19
000
FTUS43 KIWX 271700
TAFFWA
TAF
KFWA 271720Z 2718/2818 23008KT P6SM VCTS SCT009 BKN015CB
     FM271900 26010KT P6SM VCTS SCT025CB BKN035
      TEMPO 2719/2722 3SM -TSRA BKN020CB
     FM272300 29013G20KT P6SM BKN035
     FM280500 31012KT P6SM BKN015
      TEMPO 2805/2808 4SM BR BKN008=

USA.gov is the U.S. government's official web portal to all federal, state and local government web resources and services.